createdAt,value
2018-12-10T00:00:44.748Z,6.90
2018-12-10T00:03:18.473Z,6.90
2018-12-10T00:05:46.846Z,7.00
2018-12-10T00:08:15.230Z,7.00
2018-12-10T00:10:43.609Z,7.00
2018-12-10T00:13:12.012Z,7.00
2018-12-10T00:15:40.516Z,7.00
2018-12-10T00:18:08.913Z,6.90
2018-12-10T00:20:37.292Z,7.00
2018-12-10T00:23:05.680Z,7.00
2018-12-10T00:25:34.094Z,6.90
2018-12-10T00:28:02.461Z,6.90
2018-12-10T00:30:30.880Z,6.90
2018-12-10T00:32:59.278Z,6.90
2018-12-10T00:35:27.682Z,6.90
2018-12-10T00:37:56.048Z,6.80
2018-12-10T00:40:24.450Z,6.80
2018-12-10T00:42:52.812Z,6.80
2018-12-10T00:45:21.204Z,6.90
2018-12-10T00:47:49.581Z,6.80
2018-12-10T00:50:18.102Z,6.70
2018-12-10T00:52:46.489Z,6.70
2018-12-10T00:55:14.868Z,6.70
2018-12-10T00:57:43.256Z,6.70
2018-12-10T01:00:11.896Z,6.70
2018-12-10T01:02:40.261Z,6.70
2018-12-10T01:05:08.677Z,6.70
2018-12-10T01:07:37.052Z,6.70
2018-12-10T01:10:05.907Z,6.70
2018-12-10T01:12:34.296Z,6.70
2018-12-10T01:15:02.712Z,6.70
2018-12-10T01:17:31.087Z,6.70
2018-12-10T01:19:59.480Z,6.80
2018-12-10T01:22:27.871Z,6.80
2018-12-10T01:24:56.277Z,6.80
2018-12-10T01:27:24.653Z,6.70
2018-12-10T01:29:53.056Z,6.70
2018-12-10T01:32:21.444Z,6.60
2018-12-10T01:34:49.833Z,6.60
2018-12-10T01:37:18.229Z,6.60
2018-12-10T01:39:46.628Z,6.60
2018-12-10T01:42:15.024Z,6.60
2018-12-10T01:44:43.426Z,6.60
2018-12-10T01:47:11.825Z,6.60
2018-12-10T01:49:40.221Z,6.60
2018-12-10T01:52:08.612Z,6.60
2018-12-10T01:54:37.021Z,6.70
2018-12-10T01:57:05.396Z,6.60
2018-12-10T01:59:33.820Z,6.70
2018-12-10T02:02:02.205Z,6.60
2018-12-10T02:04:30.599Z,6.60
2018-12-10T02:06:58.971Z,6.60
2018-12-10T02:09:27.364Z,6.60
2018-12-10T02:11:55.744Z,6.60
2018-12-10T02:14:24.136Z,6.60
2018-12-10T02:16:52.748Z,6.60
2018-12-10T02:19:21.154Z,6.60
2018-12-10T02:21:49.548Z,6.50
2018-12-10T02:24:17.946Z,6.50
2018-12-10T02:26:46.330Z,6.50
2018-12-10T02:29:15.530Z,6.50
2018-12-10T02:31:44.319Z,6.50
2018-12-10T02:34:12.712Z,6.50
2018-12-10T02:36:41.088Z,6.50
2018-12-10T02:39:09.476Z,6.50
2018-12-10T02:41:37.828Z,6.50
2018-12-10T02:44:06.332Z,6.50
2018-12-10T02:46:34.700Z,6.50
2018-12-10T02:49:03.118Z,6.50
2018-12-10T02:51:31.509Z,6.50
2018-12-10T02:53:59.922Z,6.50
2018-12-10T02:56:28.316Z,6.50
2018-12-10T02:58:56.693Z,6.50
2018-12-10T03:01:25.096Z,6.50
2018-12-10T03:03:53.589Z,6.50
2018-12-10T03:06:22.094Z,6.50
2018-12-10T03:08:50.473Z,6.50
2018-12-10T03:11:18.874Z,6.50
2018-12-10T03:13:47.257Z,6.40
2018-12-10T03:16:15.656Z,6.40
2018-12-10T03:18:44.080Z,6.40
2018-12-10T03:21:12.474Z,6.40
2018-12-10T03:23:40.851Z,6.40
2018-12-10T03:26:09.258Z,6.40
2018-12-10T03:28:37.645Z,6.30
2018-12-10T03:31:06.053Z,6.40
2018-12-10T03:33:34.429Z,6.40
2018-12-10T03:36:02.804Z,6.30
2018-12-10T03:38:31.189Z,6.30
2018-12-10T03:40:59.871Z,6.20
2018-12-10T03:43:28.333Z,6.20
2018-12-10T03:45:56.712Z,6.20
2018-12-10T03:48:25.069Z,6.20
2018-12-10T03:50:53.434Z,6.20
2018-12-10T03:53:21.781Z,6.20
2018-12-10T03:55:50.145Z,6.20
2018-12-10T03:58:18.500Z,6.20
2018-12-10T04:00:46.964Z,6.20
2018-12-10T04:03:15.437Z,6.20
2018-12-10T04:05:43.924Z,6.20
2018-12-10T04:08:12.284Z,6.20
2018-12-10T04:10:40.665Z,6.20
2018-12-10T04:13:09.022Z,6.20
2018-12-10T04:15:37.400Z,6.20
2018-12-10T04:18:05.753Z,6.20
2018-12-10T04:20:34.136Z,6.20
2018-12-10T04:23:02.496Z,6.20
2018-12-10T04:25:30.872Z,6.20
2018-12-10T04:27:59.237Z,6.10
2018-12-10T04:30:27.636Z,6.10
2018-12-10T04:32:56.050Z,6.10
2018-12-10T04:35:24.437Z,6.10
2018-12-10T04:37:52.795Z,6.10
2018-12-10T04:40:21.175Z,6.10
2018-12-10T04:42:49.540Z,6.10
2018-12-10T04:45:17.905Z,6.10
2018-12-10T04:47:46.263Z,6.10
2018-12-10T04:50:14.647Z,6.10
2018-12-10T04:52:43.091Z,6.10
2018-12-10T04:55:11.481Z,6.10
2018-12-10T04:57:39.826Z,6.00
2018-12-10T05:00:08.593Z,6.00
2018-12-10T05:02:37.056Z,6.00
2018-12-10T05:05:05.760Z,6.00
2018-12-10T05:07:34.141Z,6.00
2018-12-10T05:10:02.530Z,6.00
2018-12-10T05:12:30.892Z,6.00
2018-12-10T05:14:59.264Z,6.00
2018-12-10T05:17:27.654Z,6.00
2018-12-10T05:19:56.021Z,5.90
2018-12-10T05:22:24.388Z,5.90
2018-12-10T05:24:52.731Z,5.90
2018-12-10T05:27:21.102Z,5.90
2018-12-10T05:29:49.452Z,5.80
2018-12-10T05:32:17.842Z,5.90
2018-12-10T05:34:46.194Z,5.80
2018-12-10T05:37:14.547Z,5.80
2018-12-10T05:39:42.892Z,5.80
2018-12-10T05:42:11.254Z,5.80
2018-12-10T05:44:39.605Z,5.80
2018-12-10T05:47:07.981Z,5.70
2018-12-10T05:49:36.339Z,5.70
2018-12-10T05:52:04.706Z,5.70
2018-12-10T05:54:33.066Z,5.60
2018-12-10T05:57:01.449Z,5.50
2018-12-10T05:59:29.804Z,5.40
2018-12-10T06:01:58.170Z,5.30
2018-12-10T06:04:26.697Z,5.10
2018-12-10T06:06:55.075Z,5.10
2018-12-10T06:09:23.446Z,5.10
2018-12-10T06:11:51.830Z,5.00
2018-12-10T06:14:20.192Z,5.00
2018-12-10T06:16:48.598Z,5.00
2018-12-10T06:19:16.959Z,5.00
2018-12-10T06:21:45.308Z,4.90
2018-12-10T06:24:13.678Z,4.90
2018-12-10T06:26:42.152Z,4.80
2018-12-10T06:29:10.638Z,4.80
2018-12-10T06:31:39.018Z,4.80
2018-12-10T06:34:09.199Z,4.80
2018-12-10T06:36:37.667Z,4.80
2018-12-10T06:39:07.426Z,4.80
2018-12-10T06:41:35.781Z,4.80
2018-12-10T06:44:04.370Z,4.70
2018-12-10T06:46:32.724Z,4.60
2018-12-10T06:49:02.099Z,4.60
2018-12-10T06:51:30.450Z,4.60
2018-12-10T06:53:58.817Z,4.60
2018-12-10T06:56:27.169Z,4.60
2018-12-10T06:58:55.550Z,4.60
2018-12-10T07:01:23.900Z,4.60
2018-12-10T07:03:54.787Z,4.60
2018-12-10T07:06:23.133Z,4.60
2018-12-10T07:08:51.506Z,4.60
2018-12-10T07:11:19.869Z,4.60
2018-12-10T07:13:48.348Z,4.70
2018-12-10T07:16:16.688Z,4.70
2018-12-10T07:18:45.050Z,4.70
2018-12-10T07:21:13.437Z,4.80
2018-12-10T07:23:41.800Z,4.90
2018-12-10T07:31:32.669Z,5.00
2018-12-10T07:44:27.717Z,5.10
2018-12-10T07:46:56.080Z,5.10
2018-12-10T07:49:24.443Z,5.10
2018-12-10T07:51:52.792Z,5.10
2018-12-10T07:54:21.169Z,5.20
2018-12-10T07:56:49.517Z,5.20
2018-12-10T07:59:21.588Z,5.20
2018-12-10T08:01:50.046Z,5.20
2018-12-10T08:04:18.424Z,5.30
2018-12-10T08:06:46.775Z,5.30
2018-12-10T08:09:15.177Z,5.30
2018-12-10T08:11:43.524Z,5.40
2018-12-10T08:14:18.131Z,5.40
2018-12-10T08:16:46.478Z,5.40
2018-12-10T08:19:14.828Z,5.50
2018-12-10T08:21:43.160Z,5.60
2018-12-10T08:24:11.523Z,5.60
2018-12-10T08:26:41.325Z,5.70
2018-12-10T08:29:09.808Z,5.80
2018-12-10T08:31:49.974Z,5.80
2018-12-10T08:34:18.443Z,5.90
2018-12-10T08:36:46.782Z,5.90
2018-12-10T08:39:15.232Z,5.80
2018-12-10T08:41:43.716Z,5.80
2018-12-10T08:44:12.072Z,5.80
2018-12-10T08:46:40.401Z,5.80
2018-12-10T08:49:08.759Z,5.80
2018-12-10T08:51:37.089Z,5.90
2018-12-10T08:54:05.459Z,5.90
2018-12-10T08:56:34.427Z,5.90
2018-12-10T08:59:02.905Z,5.90
2018-12-10T09:01:31.278Z,5.80
2018-12-10T09:03:59.639Z,5.80
2018-12-10T09:06:27.985Z,5.80
2018-12-10T09:08:56.346Z,5.80
2018-12-10T09:11:24.722Z,5.80
2018-12-10T09:13:53.133Z,5.80
2018-12-10T09:16:21.466Z,5.80
2018-12-10T09:18:49.836Z,5.90
2018-12-10T09:21:18.184Z,5.90
2018-12-10T09:23:46.558Z,6.00
2018-12-10T09:26:14.912Z,6.00
2018-12-10T09:28:43.269Z,6.10
2018-12-10T09:31:11.658Z,6.10
2018-12-10T09:33:40.060Z,6.20
2018-12-10T09:36:08.484Z,6.20
2018-12-10T09:38:36.880Z,6.30
2018-12-10T09:41:05.388Z,6.40
2018-12-10T09:43:33.777Z,6.40
2018-12-10T09:46:02.188Z,6.90
2018-12-10T09:48:30.580Z,7.40
2018-12-10T09:50:58.964Z,7.10
2018-12-10T09:53:27.345Z,7.50
2018-12-10T09:55:55.732Z,7.30
2018-12-10T09:58:24.095Z,7.20
2018-12-10T10:00:52.490Z,7.20
2018-12-10T10:03:20.864Z,7.30
2018-12-10T10:05:49.256Z,7.30
2018-12-10T10:08:17.633Z,7.20
2018-12-10T10:10:54.105Z,7.00
2018-12-10T10:13:22.456Z,6.80
2018-12-10T10:15:50.812Z,6.70
2018-12-10T10:18:19.171Z,6.70
2018-12-10T10:20:47.560Z,6.70
2018-12-10T10:23:15.915Z,6.60
2018-12-10T10:25:44.291Z,6.50
2018-12-10T10:28:12.645Z,6.30
2018-12-10T10:30:43.923Z,6.30
2018-12-10T10:33:11.427Z,6.30
2018-12-10T10:35:39.794Z,6.20
2018-12-10T10:38:08.152Z,6.20
2018-12-10T10:40:36.537Z,6.20
2018-12-10T10:43:04.892Z,6.20
2018-12-10T10:45:34.918Z,6.20
2018-12-10T10:48:03.760Z,6.20
2018-12-10T10:50:32.145Z,6.20
2018-12-10T10:53:00.489Z,6.20
2018-12-10T10:55:28.860Z,6.20
2018-12-10T10:57:57.224Z,6.20
2018-12-10T11:00:30.996Z,6.30
2018-12-10T11:03:09.552Z,6.30
2018-12-10T11:05:38.049Z,6.30
2018-12-10T11:08:06.404Z,6.30
2018-12-10T11:10:34.796Z,6.40
2018-12-10T11:13:03.162Z,6.40
2018-12-10T11:15:31.533Z,6.40
2018-12-10T11:17:59.888Z,6.40
2018-12-10T11:20:28.251Z,6.40
2018-12-10T11:22:56.615Z,6.30
2018-12-10T11:25:24.996Z,6.30
2018-12-10T11:27:53.391Z,6.30
2018-12-10T11:30:21.868Z,6.30
2018-12-10T11:32:50.227Z,6.40
2018-12-10T11:35:18.631Z,6.40
2018-12-10T11:37:47.066Z,6.40
2018-12-10T11:40:15.448Z,6.40
2018-12-10T11:42:43.816Z,6.50
2018-12-10T11:45:12.323Z,6.50
2018-12-10T11:47:40.676Z,6.60
2018-12-10T11:50:09.176Z,6.50
2018-12-10T11:52:37.636Z,6.50
2018-12-10T11:55:06.222Z,6.60
2018-12-10T11:57:34.596Z,6.60
2018-12-10T12:00:03.088Z,6.60
2018-12-10T12:02:31.428Z,6.60
2018-12-10T12:04:59.804Z,6.50
2018-12-10T12:07:28.200Z,6.50
2018-12-10T12:09:56.569Z,6.60
2018-12-10T12:12:24.954Z,6.50
2018-12-10T12:14:53.340Z,6.50
2018-12-10T12:17:21.693Z,6.50
2018-12-10T12:19:50.043Z,6.50
2018-12-10T12:22:18.433Z,6.50
2018-12-10T12:24:46.810Z,6.50
2018-12-10T12:27:15.332Z,6.50
2018-12-10T12:29:43.701Z,6.50
2018-12-10T12:32:12.092Z,6.60
2018-12-10T12:34:40.440Z,6.60
2018-12-10T12:37:08.840Z,6.60
2018-12-10T12:39:37.219Z,6.60
2018-12-10T12:42:05.656Z,6.60
2018-12-10T12:44:34.109Z,6.60
2018-12-10T12:47:02.536Z,6.50
2018-12-10T12:49:30.900Z,6.50
2018-12-10T12:51:59.304Z,6.40
2018-12-10T12:54:27.678Z,6.30
2018-12-10T12:56:56.048Z,6.20
2018-12-10T12:59:24.399Z,6.20
2018-12-10T13:01:53.022Z,6.20
2018-12-10T13:04:21.437Z,6.20
2018-12-10T13:06:49.901Z,6.20
2018-12-10T13:09:21.681Z,6.30
2018-12-10T13:11:48.648Z,6.30
2018-12-10T13:14:17.059Z,6.20
2018-12-10T13:16:49.389Z,6.10
2018-12-10T13:19:15.932Z,6.00
2018-12-10T13:21:44.304Z,5.80
2018-12-10T13:24:12.659Z,5.80
2018-12-10T13:26:41.053Z,5.70
2018-12-10T13:29:10.056Z,5.80
2018-12-10T13:31:38.509Z,5.90
2018-12-10T13:34:06.861Z,5.90
2018-12-10T13:36:36.098Z,6.20
2018-12-10T13:39:06.716Z,6.90
2018-12-10T13:41:35.140Z,8.40
2018-12-10T13:44:03.488Z,8.10
2018-12-10T13:46:31.880Z,7.70
2018-12-10T13:49:00.252Z,8.10
2018-12-10T13:51:28.620Z,9.20
2018-12-10T13:53:57.024Z,8.40
2018-12-10T13:56:25.380Z,8.50
2018-12-10T13:58:53.729Z,7.40
2018-12-10T14:01:22.157Z,7.00
2018-12-10T14:03:50.627Z,8.80
2018-12-10T14:06:19.178Z,9.80
2018-12-10T14:08:47.554Z,7.60
2018-12-10T14:11:16.020Z,7.20
2018-12-10T14:13:44.583Z,7.00
2018-12-10T14:16:12.912Z,6.90
2018-12-10T14:18:57.353Z,6.90
2018-12-10T14:21:25.752Z,6.90
2018-12-10T14:23:54.105Z,6.90
2018-12-10T14:26:22.445Z,7.10
2018-12-10T14:28:50.920Z,6.90
2018-12-10T14:31:19.255Z,7.00
2018-12-10T14:33:47.912Z,7.00
2018-12-10T14:36:16.267Z,7.10
2018-12-10T14:38:44.632Z,7.10
2018-12-10T14:41:12.975Z,7.00
2018-12-10T14:43:41.348Z,7.00
2018-12-10T14:46:09.709Z,7.00
2018-12-10T14:48:38.181Z,6.90
2018-12-10T14:51:06.534Z,6.90
2018-12-10T14:53:34.900Z,6.90
2018-12-10T14:56:03.373Z,6.80
2018-12-10T14:58:31.751Z,6.70
2018-12-10T15:01:00.108Z,6.70
2018-12-10T15:03:28.471Z,6.60
2018-12-10T15:05:56.827Z,6.50
2018-12-10T15:08:25.192Z,6.40
2018-12-10T15:10:53.540Z,6.40
2018-12-10T15:13:21.921Z,6.40
2018-12-10T15:15:50.276Z,6.30
2018-12-10T15:18:18.647Z,6.30
2018-12-10T15:20:47.112Z,6.20
2018-12-10T15:23:15.493Z,6.20
2018-12-10T15:25:43.848Z,6.10
2018-12-10T15:28:12.273Z,6.10
2018-12-10T15:30:40.620Z,6.00
2018-12-10T15:33:08.982Z,6.00
2018-12-10T15:35:37.319Z,6.00
2018-12-10T15:38:05.668Z,6.00
2018-12-10T15:40:34.032Z,5.90
2018-12-10T15:43:02.390Z,5.80
2018-12-10T15:45:30.723Z,5.80
2018-12-10T15:47:59.076Z,5.80
2018-12-10T15:50:27.404Z,5.80
2018-12-10T15:52:55.759Z,5.70
2018-12-10T15:55:24.096Z,5.60
2018-12-10T15:57:52.458Z,5.50
2018-12-10T16:00:20.907Z,5.50
2018-12-10T16:02:49.272Z,5.30
2018-12-10T16:05:17.641Z,5.20
2018-12-10T16:07:45.986Z,5.10
2018-12-10T16:10:14.348Z,5.00
2018-12-10T16:12:42.679Z,5.00
2018-12-10T16:15:11.051Z,5.00
2018-12-10T16:17:39.532Z,5.00
2018-12-10T16:20:09.462Z,4.90
2018-12-10T16:22:55.970Z,4.80
2018-12-10T16:25:24.356Z,4.80
2018-12-10T16:27:52.812Z,4.80
2018-12-10T16:46:06.635Z,5.20
2018-12-10T16:48:35.024Z,5.20
2018-12-10T17:02:25.608Z,5.10
2018-12-10T17:07:32.103Z,5.20
2018-12-10T17:28:40.664Z,5.00
2018-12-10T17:36:17.947Z,5.20
2018-12-10T17:38:46.335Z,5.30
2018-12-10T17:43:56.140Z,5.20
2018-12-10T17:46:30.852Z,5.30
2018-12-10T17:49:12.905Z,5.30
2018-12-10T17:54:26.094Z,5.40
2018-12-10T18:00:08.509Z,5.40
2018-12-10T18:07:49.355Z,5.50
2018-12-10T18:13:11.204Z,5.50
2018-12-10T18:15:39.584Z,5.60
2018-12-10T18:18:07.954Z,5.60
2018-12-10T18:20:36.346Z,5.70
2018-12-10T18:23:04.757Z,5.70
2018-12-10T18:25:33.145Z,5.70
2018-12-10T18:28:01.817Z,5.70
2018-12-10T18:30:30.328Z,5.80
2018-12-10T18:32:58.708Z,5.80
2018-12-10T18:35:27.064Z,6.00
2018-12-10T18:37:55.414Z,5.90
2018-12-10T18:40:23.776Z,6.00
2018-12-10T18:42:52.118Z,5.90
2018-12-10T18:45:20.476Z,6.00
2018-12-10T18:47:49.056Z,6.00
2018-12-10T18:50:17.803Z,6.00
2018-12-10T18:52:46.922Z,5.90
2018-12-10T18:55:15.343Z,5.60
2018-12-10T18:57:43.689Z,4.90
2018-12-10T19:00:13.803Z,4.60
2018-12-10T19:02:42.658Z,4.40
2018-12-10T19:05:11.240Z,4.00
2018-12-10T19:07:39.576Z,3.70
2018-12-10T19:10:09.353Z,3.70
2018-12-10T19:12:37.996Z,3.50
2018-12-10T19:15:08.872Z,3.50
2018-12-10T19:17:37.219Z,3.50
2018-12-10T19:20:06.301Z,3.40
2018-12-10T19:22:34.656Z,3.40
2018-12-10T19:25:03.027Z,3.30
2018-12-10T19:27:31.418Z,3.40
2018-12-10T19:29:59.837Z,3.40
2018-12-10T19:32:28.254Z,3.30
2018-12-10T19:37:59.476Z,3.30
2018-12-10T19:40:27.913Z,3.30
2018-12-10T20:47:43.285Z,2.10
2018-12-10T20:50:11.641Z,2.10
2018-12-10T20:52:40.023Z,2.00
2018-12-10T20:55:08.619Z,1.90
2018-12-10T21:03:44.552Z,1.90
2018-12-10T21:06:18.293Z,1.90
2018-12-10T21:08:46.651Z,1.90
2018-12-10T21:11:15.033Z,1.90
2018-12-10T21:13:43.397Z,1.90
2018-12-10T21:16:11.775Z,1.90
2018-12-10T21:18:40.136Z,1.90
2018-12-10T21:21:08.659Z,2.00
2018-12-10T21:23:37.052Z,2.10
2018-12-10T21:26:05.401Z,2.20
2018-12-10T21:28:33.776Z,2.30
2018-12-10T21:31:02.232Z,2.40
2018-12-10T21:33:30.619Z,2.40
2018-12-10T21:35:58.988Z,2.40
2018-12-10T21:38:27.363Z,2.40
2018-12-10T21:40:55.721Z,2.50
2018-12-10T21:43:24.108Z,2.50
2018-12-10T21:45:52.541Z,2.50
2018-12-10T21:48:20.977Z,2.50
2018-12-10T21:50:49.321Z,2.50
2018-12-10T21:53:17.700Z,2.70
2018-12-10T21:55:46.075Z,2.80
2018-12-10T21:58:14.460Z,2.80
2018-12-10T22:00:42.935Z,2.90
2018-12-10T22:03:11.420Z,2.90
2018-12-10T22:05:39.744Z,2.90
2018-12-10T22:08:08.220Z,2.90
2018-12-10T22:10:36.587Z,3.00
2018-12-10T22:13:05.068Z,2.90
2018-12-10T22:15:33.413Z,2.90
2018-12-10T22:18:01.774Z,2.90
2018-12-10T22:20:30.123Z,3.00
2018-12-10T22:22:58.502Z,3.00
2018-12-10T22:25:26.867Z,3.00
2018-12-10T22:27:55.256Z,3.00
2018-12-10T22:30:23.627Z,2.90
2018-12-10T22:32:52.034Z,2.80
2018-12-10T22:35:20.401Z,2.80
2018-12-10T22:37:48.759Z,2.70
2018-12-10T22:40:17.116Z,2.70
2018-12-10T22:42:45.511Z,2.70
2018-12-10T22:45:13.853Z,2.70
2018-12-10T22:47:42.248Z,2.60
2018-12-10T22:50:10.611Z,2.60
2018-12-10T22:52:38.986Z,2.60
2018-12-10T22:55:07.342Z,2.50
2018-12-10T22:57:35.849Z,2.50
2018-12-10T23:00:06.827Z,2.60
2018-12-10T23:02:35.193Z,2.60
2018-12-10T23:05:04.014Z,2.70
2018-12-10T23:07:32.376Z,2.80
2018-12-10T23:10:00.725Z,2.80
2018-12-10T23:12:29.094Z,2.80
2018-12-10T23:14:57.461Z,2.80
2018-12-10T23:17:25.844Z,2.70
2018-12-10T23:19:54.183Z,2.70
2018-12-10T23:22:22.547Z,2.70
2018-12-10T23:24:50.892Z,2.60
2018-12-10T23:27:19.263Z,2.70
2018-12-10T23:29:47.708Z,2.70
2018-12-10T23:32:16.110Z,2.70
2018-12-10T23:34:44.477Z,2.70
2018-12-10T23:37:12.851Z,2.70
2018-12-10T23:39:41.208Z,2.60
2018-12-10T23:42:09.577Z,2.70
2018-12-10T23:44:43.339Z,2.60
2018-12-10T23:47:11.719Z,2.80
2018-12-10T23:49:40.080Z,2.90
2018-12-10T23:52:08.456Z,3.00
2018-12-10T23:54:36.818Z,3.00
2018-12-10T23:57:05.252Z,3.00
2018-12-10T23:59:33.604Z,3.10
